createdAt,value
2022-12-08T00:01:37.991Z,97044.70
2022-12-08T00:04:09.937Z,97043.52
2022-12-08T00:07:00.630Z,97040.18
2022-12-08T00:09:38.719Z,97045.71
2022-12-08T00:12:12.039Z,97041.36
2022-12-08T00:14:45.384Z,97044.75
2022-12-08T00:17:17.528Z,97042.92
2022-12-08T00:19:50.472Z,97042.77
2022-12-08T00:22:21.285Z,97046.27
2022-12-08T00:24:52.506Z,97043.46
2022-12-08T00:27:23.763Z,97044.77
2022-12-08T00:29:54.654Z,97040.81
2022-12-08T00:32:25.460Z,97039.95
2022-12-08T00:34:56.318Z,97038.23
2022-12-08T00:37:27.403Z,97042.68
2022-12-08T00:39:58.404Z,97038.63
2022-12-08T00:42:29.164Z,97037.16
2022-12-08T00:45:00.084Z,97038.58
2022-12-08T00:47:31.573Z,97034.11
2022-12-08T00:50:03.002Z,97035.13
2022-12-08T00:52:34.454Z,97037.11
2022-12-08T00:55:06.063Z,97041.71
2022-12-08T00:57:36.997Z,97042.08
2022-12-08T01:00:09.780Z,97041.38
2022-12-08T01:02:41.510Z,97037.82
2022-12-08T01:05:12.547Z,97038.38
2022-12-08T01:07:43.519Z,97037.58
2022-12-08T01:10:14.448Z,97035.85
2022-12-08T01:12:45.505Z,97035.63
2022-12-08T01:15:16.704Z,97038.61
2022-12-08T01:17:47.701Z,97040.39
2022-12-08T01:20:18.987Z,97043.54
2022-12-08T01:22:49.819Z,97050.79
2022-12-08T01:25:20.807Z,97050.58
2022-12-08T01:27:52.811Z,97053.52
2022-12-08T01:30:24.341Z,97052.25
2022-12-08T01:32:55.485Z,97052.15
2022-12-08T01:35:26.585Z,97050.33
2022-12-08T01:37:57.735Z,97053.02
2022-12-08T01:40:28.722Z,97046.22
2022-12-08T01:42:59.533Z,97043.64
2022-12-08T01:45:32.659Z,97041.96
2022-12-08T01:48:09.443Z,97034.45
2022-12-08T01:50:44.130Z,97032.98
2022-12-08T01:53:19.217Z,97033.09
2022-12-08T01:55:54.185Z,97029.73
2022-12-08T01:58:28.307Z,97024.67
2022-12-08T02:00:59.748Z,97022.70
2022-12-08T02:03:35.361Z,97019.61
2022-12-08T02:06:07.119Z,97018.95
2022-12-08T02:08:41.376Z,97018.39
2022-12-08T02:11:13.719Z,97014.84
2022-12-08T02:13:47.027Z,97010.89
2022-12-08T02:16:34.098Z,97011.30
2022-12-08T02:19:31.572Z,97008.45
2022-12-08T02:22:08.692Z,97013.32
2022-12-08T02:24:44.129Z,97014.44
2022-12-08T02:27:37.092Z,97016.61
2022-12-08T02:30:16.253Z,97013.94
2022-12-08T02:33:10.567Z,97015.60
2022-12-08T02:35:49.130Z,97010.58
2022-12-08T02:38:28.503Z,97009.63
2022-12-08T02:41:08.296Z,97010.73
2022-12-08T02:43:43.970Z,97011.15
2022-12-08T02:46:22.781Z,97007.70
2022-12-08T02:48:56.808Z,97008.61
2022-12-08T02:51:27.885Z,97004.20
2022-12-08T02:53:59.825Z,97005.06
2022-12-08T02:56:50.872Z,96999.34
2022-12-08T02:59:34.375Z,96998.33
2022-12-08T03:02:26.554Z,96996.35
2022-12-08T03:05:06.552Z,96998.94
2022-12-08T03:07:45.778Z,96997.36
2022-12-08T03:10:26.571Z,96992.55
2022-12-08T03:13:03.788Z,96990.17
2022-12-08T03:15:36.492Z,96985.45
2022-12-08T03:18:11.423Z,96983.38
2022-12-08T03:20:45.660Z,96984.44
2022-12-08T03:23:19.822Z,96987.48
2022-12-08T03:25:56.044Z,96986.82
2022-12-08T03:28:27.105Z,96981.91
2022-12-08T03:31:03.727Z,96980.70
2022-12-08T03:33:38.446Z,96974.52
2022-12-08T03:36:12.342Z,96974.16
2022-12-08T03:38:45.310Z,96977.91
2022-12-08T03:41:19.547Z,96975.38
2022-12-08T03:43:53.378Z,96971.47
2022-12-08T03:48:56.787Z,96971.33
2022-12-08T03:51:28.181Z,96975.79
2022-12-08T03:53:59.210Z,96968.79
2022-12-08T03:56:31.900Z,96968.67
2022-12-08T03:59:02.942Z,96968.23
2022-12-08T04:01:34.326Z,96971.63
2022-12-08T04:04:05.506Z,96969.39
2022-12-08T04:06:36.452Z,96967.41
2022-12-08T04:09:07.522Z,96964.13
2022-12-08T04:11:38.499Z,96966.45
2022-12-08T04:14:09.386Z,96962.05
2022-12-08T04:16:40.262Z,96963.01
2022-12-08T04:19:11.191Z,96966.76
2022-12-08T04:21:42.338Z,96964.58
2022-12-08T04:24:13.454Z,96967.38
2022-12-08T04:26:44.459Z,96966.20
2022-12-08T04:29:15.481Z,96963.82
2022-12-08T04:31:46.613Z,96964.58
2022-12-08T04:34:16.139Z,96964.08
2022-12-08T04:36:46.993Z,96964.48
2022-12-08T04:39:18.048Z,96961.23
2022-12-08T04:41:48.865Z,96962.50
2022-12-08T04:44:19.970Z,96960.58
2022-12-08T04:46:51.191Z,96964.17
2022-12-08T04:49:22.593Z,96963.30
2022-12-08T04:51:53.512Z,96961.79
2022-12-08T04:54:24.486Z,96960.93
2022-12-08T04:56:55.479Z,96958.74
2022-12-08T04:59:26.608Z,96962.70
2022-12-08T05:01:57.989Z,96960.33
2022-12-08T05:04:27.795Z,96962.70
2022-12-08T05:06:58.907Z,96962.66
2022-12-08T05:09:30.120Z,96956.38
2022-12-08T05:12:01.240Z,96957.03
2022-12-08T05:14:32.284Z,96955.01
2022-12-08T05:17:09.182Z,96950.19
2022-12-08T05:19:39.322Z,96953.44
2022-12-08T05:22:10.276Z,96957.23
2022-12-08T05:24:47.060Z,96954.81
2022-12-08T05:27:18.707Z,96952.67
2022-12-08T05:29:50.250Z,96951.36
2022-12-08T05:32:21.185Z,96950.65
2022-12-08T05:34:52.172Z,96949.94
2022-12-08T05:37:23.406Z,96943.35
2022-12-08T05:39:54.383Z,96942.95
2022-12-08T05:42:25.584Z,96941.73
2022-12-08T05:44:56.493Z,96937.73
2022-12-08T05:47:31.763Z,96933.67
2022-12-08T05:50:07.821Z,96936.83
2022-12-08T05:52:39.374Z,96934.95
2022-12-08T05:55:11.449Z,96939.25
2022-12-08T05:57:42.468Z,96943.35
2022-12-08T06:00:15.081Z,96945.33
2022-12-08T06:02:46.205Z,96946.14
2022-12-08T06:05:17.436Z,96952.63
2022-12-08T06:07:48.464Z,96949.69
2022-12-08T06:10:19.839Z,96951.10
2022-12-08T06:12:50.955Z,96950.54
2022-12-08T06:15:22.027Z,96951.16
2022-12-08T06:17:52.894Z,96950.80
2022-12-08T06:20:23.905Z,96951.70
2022-12-08T06:22:55.030Z,96954.54
2022-12-08T06:25:26.505Z,96954.69
2022-12-08T06:27:57.283Z,96957.33
2022-12-08T06:30:28.816Z,96952.36
2022-12-08T06:33:00.153Z,96954.55
2022-12-08T06:35:29.743Z,96950.98
2022-12-08T06:38:00.543Z,96950.28
2022-12-08T06:40:31.828Z,96950.03
2022-12-08T06:43:02.974Z,96952.00
2022-12-08T06:45:34.191Z,96953.21
2022-12-08T06:48:05.808Z,96955.60
2022-12-08T06:50:36.835Z,96961.58
2022-12-08T06:53:07.819Z,96963.05
2022-12-08T06:58:29.866Z,96963.40
2022-12-08T07:01:04.701Z,96966.89
2022-12-08T07:03:35.572Z,96966.18
2022-12-08T07:06:07.073Z,96965.83
2022-12-08T07:08:36.530Z,96964.55
2022-12-08T07:11:14.205Z,96965.82
2022-12-08T07:13:47.498Z,96968.20
2022-12-08T07:16:18.445Z,96970.89
2022-12-08T07:18:49.328Z,96971.66
2022-12-08T07:21:20.868Z,96972.30
2022-12-08T07:23:57.415Z,96971.55
2022-12-08T07:26:29.185Z,96972.56
2022-12-08T07:29:00.961Z,96971.60
2022-12-08T07:31:31.794Z,96973.01
2022-12-08T07:34:03.034Z,96968.64
2022-12-08T07:36:34.298Z,96964.94
2022-12-08T07:39:05.591Z,96965.50
2022-12-08T07:41:36.807Z,96966.40
2022-12-08T07:44:07.823Z,96965.34
2022-12-08T07:46:38.786Z,96965.69
2022-12-08T07:49:09.790Z,96965.89
2022-12-08T07:51:40.936Z,96968.73
2022-12-08T07:54:14.066Z,96965.79
2022-12-08T07:56:45.611Z,96962.75
2022-12-08T07:59:16.443Z,96960.63
2022-12-08T08:02:06.313Z,96963.56
2022-12-08T08:04:39.344Z,96962.33
2022-12-08T08:07:10.625Z,96961.48
2022-12-08T08:09:41.578Z,96956.81
2022-12-08T08:15:05.134Z,96961.02
2022-12-08T08:17:36.850Z,96964.80
2022-12-08T08:20:09.854Z,96963.19
2022-12-08T08:22:40.829Z,96965.46
2022-12-08T08:25:12.097Z,96966.73
2022-12-08T08:27:41.768Z,96965.66
2022-12-08T08:30:19.930Z,96967.08
2022-12-08T08:32:52.427Z,96969.11
2022-12-08T08:35:23.329Z,96970.00
2022-12-08T08:37:54.497Z,96970.41
2022-12-08T08:40:25.567Z,96966.59
2022-12-08T08:42:56.359Z,96966.80
2022-12-08T08:45:27.517Z,96970.44
2022-12-08T08:47:59.055Z,96966.07
2022-12-08T08:50:34.405Z,96969.47
2022-12-08T08:53:08.235Z,96971.14
2022-12-08T08:55:41.354Z,96967.94
2022-12-08T08:58:12.430Z,96969.66
2022-12-08T09:00:43.538Z,96974.23
2022-12-08T09:03:13.857Z,96974.17
2022-12-08T09:05:43.866Z,96977.48
2022-12-08T09:08:15.061Z,96975.23
2022-12-08T09:10:46.208Z,96975.34
2022-12-08T09:13:17.109Z,96976.48
2022-12-08T09:15:48.439Z,96975.81
2022-12-08T09:18:17.981Z,96977.54
2022-12-08T09:20:48.973Z,96974.75
2022-12-08T09:23:20.033Z,96978.43
2022-12-08T09:25:50.923Z,96972.27
2022-12-08T09:28:22.037Z,96971.90
2022-12-08T09:30:53.673Z,96972.45
2022-12-08T09:33:24.895Z,96971.68
2022-12-08T09:35:55.824Z,96974.31
2022-12-08T09:38:26.736Z,96970.40
2022-12-08T09:40:57.721Z,96964.21
2022-12-08T09:43:46.677Z,96959.25
2022-12-08T09:46:19.540Z,96960.61
2022-12-08T09:48:56.115Z,96958.02
2022-12-08T09:51:29.707Z,96957.52
2022-12-08T09:54:04.986Z,96951.92
2022-12-08T09:56:38.068Z,96947.55
2022-12-08T09:59:23.063Z,96948.42
2022-12-08T10:01:54.304Z,96946.56
2022-12-08T10:04:28.312Z,96948.92
2022-12-08T10:07:14.152Z,96946.64
2022-12-08T10:09:52.613Z,96945.25
2022-12-08T10:12:29.350Z,96943.85
2022-12-08T10:15:11.944Z,96939.45
2022-12-08T10:17:48.539Z,96936.53
2022-12-08T10:20:21.631Z,96934.34
2022-12-08T10:22:57.238Z,96934.57
2022-12-08T10:25:36.350Z,96934.59
2022-12-08T10:28:09.075Z,96922.58
2022-12-08T10:30:40.702Z,96917.31
2022-12-08T10:33:17.585Z,96913.46
2022-12-08T10:35:50.833Z,96910.11
2022-12-08T10:38:27.289Z,96907.02
2022-12-08T10:41:05.827Z,96904.16
2022-12-08T10:43:40.622Z,96902.45
2022-12-08T10:46:14.172Z,96903.44
2022-12-08T10:48:53.025Z,96900.17
2022-12-08T10:51:39.824Z,96900.79
2022-12-08T10:54:30.206Z,96899.28
2022-12-08T10:57:01.292Z,96890.83
2022-12-08T10:59:35.825Z,96888.25
2022-12-08T11:02:19.368Z,96885.58
2022-12-08T11:05:00.553Z,96884.73
2022-12-08T11:07:32.088Z,96882.60
2022-12-08T11:10:03.748Z,96881.04
2022-12-08T11:12:36.724Z,96878.05
2022-12-08T11:15:15.652Z,96878.42
2022-12-08T11:17:53.329Z,96877.63
2022-12-08T11:20:27.451Z,96871.34
2022-12-08T11:22:57.456Z,96873.35
2022-12-08T11:25:27.722Z,96870.71
2022-12-08T11:28:00.802Z,96869.04
2022-12-08T11:30:37.016Z,96867.61
2022-12-08T11:33:17.300Z,96862.89
2022-12-08T11:35:52.887Z,96862.44
2022-12-08T11:38:25.976Z,96857.73
2022-12-08T11:41:00.589Z,96856.89
2022-12-08T11:43:40.669Z,96858.92
2022-12-08T11:46:17.843Z,96854.52
2022-12-08T11:48:52.731Z,96855.71
2022-12-08T11:51:29.786Z,96854.02
2022-12-08T11:54:12.498Z,96851.04
2022-12-08T11:56:46.036Z,96855.43
2022-12-08T11:59:24.850Z,96853.42
2022-12-08T12:01:56.338Z,96853.74
2022-12-08T12:04:34.181Z,96853.53
2022-12-08T12:07:26.506Z,96849.61
2022-12-08T12:10:17.051Z,96843.56
2022-12-08T12:13:05.265Z,96843.00
2022-12-08T12:16:15.006Z,96844.67
2022-12-08T12:18:48.853Z,96844.03
2022-12-08T12:21:23.611Z,96842.62
2022-12-08T12:23:58.031Z,96840.17
2022-12-08T12:26:32.114Z,96843.41
2022-12-08T12:29:06.219Z,96840.59
2022-12-08T12:31:41.569Z,96837.08
2022-12-08T12:34:18.171Z,96838.95
2022-12-08T12:36:53.119Z,96836.27
2022-12-08T12:39:27.772Z,96833.55
2022-12-08T12:42:00.860Z,96833.17
2022-12-08T12:44:43.503Z,96832.94
2022-12-08T12:47:36.824Z,96833.64
2022-12-08T12:50:13.292Z,96831.54
2022-12-08T12:52:49.132Z,96834.27
2022-12-08T12:55:28.661Z,96829.21
2022-12-08T12:58:04.601Z,96831.86
2022-12-08T13:00:35.582Z,96830.93
2022-12-08T13:03:14.672Z,96825.77
2022-12-08T13:05:52.718Z,96821.77
2022-12-08T13:08:27.060Z,96825.23
2022-12-08T13:11:04.166Z,96825.44
2022-12-08T13:13:35.817Z,96821.46
2022-12-08T13:16:19.164Z,96817.09
2022-12-08T13:18:53.141Z,96812.98
2022-12-08T13:21:26.796Z,96811.47
2022-12-08T13:24:28.052Z,96807.65
2022-12-08T13:27:33.870Z,96804.92
2022-12-08T13:30:51.178Z,96802.09
2022-12-08T13:33:27.682Z,96802.92
2022-12-08T13:36:12.040Z,96802.03
2022-12-08T13:38:46.879Z,96803.89
2022-12-08T13:41:23.072Z,96803.42
2022-12-08T13:47:32.028Z,96803.42
2022-12-08T13:58:42.306Z,96801.32
2022-12-08T14:01:14.923Z,96801.02
2022-12-08T14:04:22.121Z,96804.09
2022-12-08T14:06:46.908Z,96806.31
2022-12-08T14:09:21.993Z,96802.34
2022-12-08T14:11:59.191Z,96804.61
2022-12-08T14:17:26.246Z,96805.98
2022-12-08T14:19:59.333Z,96808.75
2022-12-08T14:22:36.559Z,96807.66
2022-12-08T14:25:13.249Z,96807.42
2022-12-08T14:27:45.088Z,96811.82
2022-12-08T14:30:26.098Z,96814.59
2022-12-08T14:32:59.406Z,96811.92
2022-12-08T14:35:32.699Z,96809.80
2022-12-08T14:38:05.870Z,96810.70
2022-12-08T14:40:38.518Z,96810.83
2022-12-08T14:43:17.566Z,96814.84
2022-12-08T14:45:55.787Z,96817.51
2022-12-08T14:48:29.013Z,96816.94
2022-12-08T14:51:08.612Z,96814.94
2022-12-08T14:53:42.678Z,96808.36
2022-12-08T14:56:22.706Z,96805.59
2022-12-08T14:59:06.057Z,96802.08
2022-12-08T15:01:37.727Z,96806.23
2022-12-08T15:04:16.375Z,96804.81
2022-12-08T15:06:57.676Z,96806.30
2022-12-08T15:09:37.138Z,96806.27
2022-12-08T15:12:26.840Z,96808.98
2022-12-08T15:15:00.697Z,96804.80
2022-12-08T15:17:37.146Z,96809.23
2022-12-08T15:20:31.678Z,96807.98
2022-12-08T15:23:06.010Z,96805.59
2022-12-08T15:25:36.107Z,96805.30
2022-12-08T15:28:07.483Z,96805.16
2022-12-08T15:30:36.713Z,96805.13
2022-12-08T15:33:07.787Z,96803.89
2022-12-08T15:35:40.959Z,96802.54
2022-12-08T15:38:21.586Z,96803.02
2022-12-08T15:40:52.605Z,96806.79
2022-12-08T15:43:24.136Z,96806.66
2022-12-08T15:45:59.451Z,96810.88
2022-12-08T15:48:32.374Z,96811.96
2022-12-08T15:51:03.596Z,96817.83
2022-12-08T15:53:33.051Z,96817.10
2022-12-08T15:58:59.538Z,96821.28
2022-12-08T16:01:28.974Z,96819.81
2022-12-08T16:09:46.659Z,96818.33
2022-12-08T16:18:27.047Z,96815.09
2022-12-08T16:21:12.510Z,96815.50
2022-12-08T16:23:49.406Z,96812.66
2022-12-08T16:29:20.675Z,96809.54
2022-12-08T16:31:52.199Z,96807.27
2022-12-08T16:34:23.353Z,96807.45
2022-12-08T16:36:54.669Z,96810.90
2022-12-08T16:39:24.045Z,96813.95
2022-12-08T16:42:12.669Z,96811.82
2022-12-08T16:44:44.176Z,96815.11
2022-12-08T16:47:13.579Z,96816.17
2022-12-08T16:49:44.518Z,96817.35
2022-12-08T16:52:15.586Z,96818.91
2022-12-08T16:54:46.569Z,96813.65
2022-12-08T16:57:17.451Z,96817.55
2022-12-08T16:59:48.601Z,96820.33
2022-12-08T17:02:19.686Z,96819.58
2022-12-08T17:04:51.029Z,96820.44
2022-12-08T17:07:22.263Z,96815.81
2022-12-08T17:09:53.165Z,96821.19
2022-12-08T17:12:24.446Z,96820.73
2022-12-08T17:14:55.329Z,96816.77
2022-12-08T17:17:26.122Z,96816.11
2022-12-08T17:19:57.338Z,96815.52
2022-12-08T17:22:27.297Z,96818.07
2022-12-08T17:24:58.426Z,96817.08
2022-12-08T17:27:29.872Z,96817.19
2022-12-08T17:30:00.833Z,96820.88
2022-12-08T17:32:32.209Z,96819.23
2022-12-08T17:35:01.825Z,96822.73
2022-12-08T17:37:35.918Z,96822.47
2022-12-08T17:40:09.996Z,96821.29
2022-12-08T17:42:41.332Z,96816.83
2022-12-08T17:45:11.560Z,96816.52
2022-12-08T17:47:42.454Z,96817.50
2022-12-08T17:50:13.704Z,96817.91
2022-12-08T17:52:44.936Z,96819.23
2022-12-08T17:55:15.935Z,96817.15
2022-12-08T17:57:46.920Z,96816.80
2022-12-08T18:00:18.864Z,96816.14
2022-12-08T18:03:00.933Z,96821.88
2022-12-08T18:05:35.339Z,96821.83
2022-12-08T18:08:06.571Z,96821.83
2022-12-08T18:10:38.459Z,96826.34
2022-12-08T18:13:10.031Z,96823.39
2022-12-08T18:15:41.305Z,96823.14
2022-12-08T18:18:12.248Z,96821.96
2022-12-08T18:20:43.287Z,96823.77
2022-12-08T18:23:14.446Z,96823.87
2022-12-08T18:25:45.757Z,96817.98
2022-12-08T18:28:16.871Z,96818.03
2022-12-08T18:30:46.618Z,96817.27
2022-12-08T18:33:17.852Z,96810.36
2022-12-08T18:35:49.003Z,96809.10
2022-12-08T18:38:20.346Z,96812.77
2022-12-08T18:40:51.491Z,96814.13
2022-12-08T18:43:22.357Z,96815.09
2022-12-08T18:46:01.152Z,96813.36
2022-12-08T18:48:32.447Z,96809.85
2022-12-08T18:51:03.408Z,96809.14
2022-12-08T18:53:34.740Z,96810.05
2022-12-08T18:56:05.930Z,96811.71
2022-12-08T18:58:35.434Z,96809.02
2022-12-08T19:01:06.910Z,96813.44
2022-12-08T19:03:39.432Z,96809.70
2022-12-08T19:06:10.991Z,96807.36
2022-12-08T19:08:42.271Z,96805.38
2022-12-08T19:11:19.415Z,96806.24
2022-12-08T19:13:50.894Z,96803.72
2022-12-08T19:16:22.024Z,96799.05
2022-12-08T19:18:51.942Z,96798.04
2022-12-08T19:21:24.551Z,96795.16
2022-12-08T19:23:58.410Z,96796.02
2022-12-08T19:26:30.097Z,96792.36
2022-12-08T19:29:01.732Z,96795.10
2022-12-08T19:31:32.880Z,96797.10
2022-12-08T19:34:05.308Z,96801.08
2022-12-08T19:36:42.321Z,96801.64
2022-12-08T19:39:36.290Z,96802.77
2022-12-08T19:42:31.132Z,96798.56
2022-12-08T19:45:06.032Z,96797.45
2022-12-08T19:47:37.358Z,96798.50
2022-12-08T19:50:30.008Z,96805.20
2022-12-08T19:53:01.896Z,96808.26
2022-12-08T19:55:34.099Z,96807.76
2022-12-08T19:58:06.119Z,96813.55
2022-12-08T20:00:38.441Z,96809.55
2022-12-08T20:03:10.618Z,96807.13
2022-12-08T20:05:43.133Z,96809.98
2022-12-08T20:08:14.424Z,96809.90
2022-12-08T20:10:46.873Z,96808.04
2022-12-08T20:13:34.918Z,96806.69
2022-12-08T20:16:06.152Z,96800.92
2022-12-08T20:18:36.884Z,96798.36
2022-12-08T20:21:08.419Z,96796.67
2022-12-08T20:23:39.803Z,96795.36
2022-12-08T20:26:13.946Z,96795.91
2022-12-08T20:28:45.703Z,96795.75
2022-12-08T20:31:22.453Z,96795.50
2022-12-08T20:33:53.929Z,96797.15
2022-12-08T20:36:25.545Z,96797.29
2022-12-08T20:38:57.545Z,96796.77
2022-12-08T20:41:28.741Z,96799.67
2022-12-08T20:43:59.645Z,96799.94
2022-12-08T20:46:31.049Z,96800.86
2022-12-08T20:49:03.954Z,96797.02
2022-12-08T20:51:36.436Z,96796.71
2022-12-08T20:54:09.907Z,96799.69
2022-12-08T20:56:47.959Z,96800.36
2022-12-08T20:59:20.512Z,96804.00
2022-12-08T21:01:53.010Z,96801.63
2022-12-08T21:04:24.710Z,96808.15
2022-12-08T21:06:56.018Z,96807.84
2022-12-08T21:09:27.212Z,96802.02
2022-12-08T21:11:58.579Z,96801.61
2022-12-08T21:14:29.787Z,96803.64
2022-12-08T21:17:00.922Z,96803.08
2022-12-08T21:19:32.192Z,96802.82
2022-12-08T21:22:03.431Z,96809.81
2022-12-08T21:24:34.683Z,96807.02
2022-12-08T21:27:05.889Z,96803.38
2022-12-08T21:29:37.103Z,96801.14
2022-12-08T21:32:08.558Z,96802.55
2022-12-08T21:34:40.058Z,96798.50
2022-12-08T21:37:11.160Z,96801.29
2022-12-08T21:39:42.185Z,96802.40
2022-12-08T21:42:34.243Z,96801.48
2022-12-08T21:45:06.479Z,96802.61
2022-12-08T21:47:37.705Z,96802.30
2022-12-08T21:50:11.728Z,96804.13
2022-12-08T21:52:45.024Z,96807.10
2022-12-08T21:55:19.030Z,96805.39
2022-12-08T21:57:50.489Z,96802.45
2022-12-08T22:00:24.248Z,96800.83
2022-12-08T22:02:55.769Z,96803.46
2022-12-08T22:05:27.007Z,96802.04
2022-12-08T22:07:58.545Z,96794.48
2022-12-08T22:10:28.037Z,96789.77
2022-12-08T22:12:59.224Z,96787.20
2022-12-08T22:15:30.001Z,96789.73
2022-12-08T22:18:01.539Z,96788.11
2022-12-08T22:20:31.153Z,96789.17
2022-12-08T22:23:02.324Z,96790.40
2022-12-08T22:25:33.761Z,96793.38
2022-12-08T22:28:05.526Z,96793.73
2022-12-08T22:30:39.211Z,96798.95
2022-12-08T22:33:10.903Z,96799.52
2022-12-08T22:35:42.109Z,96804.98
2022-12-08T22:38:13.286Z,96806.34
2022-12-08T22:40:44.299Z,96807.81
2022-12-08T22:43:15.298Z,96809.50
2022-12-08T22:45:46.397Z,96813.34
2022-12-08T22:48:16.321Z,96812.73
2022-12-08T22:50:47.283Z,96816.08
2022-12-08T22:53:18.286Z,96816.89
2022-12-08T22:55:49.726Z,96815.88
2022-12-08T22:58:20.908Z,96817.20
2022-12-08T23:00:52.165Z,96815.77
2022-12-08T23:03:23.137Z,96817.10
2022-12-08T23:05:54.346Z,96815.63
2022-12-08T23:08:25.670Z,96815.37
2022-12-08T23:10:57.506Z,96812.90
2022-12-08T23:13:28.503Z,96814.92
2022-12-08T23:15:59.354Z,96814.98
2022-12-08T23:18:30.382Z,96818.36
2022-12-08T23:21:05.807Z,96816.75
2022-12-08T23:23:37.646Z,96815.59
2022-12-08T23:26:14.978Z,96813.66
2022-12-08T23:28:46.185Z,96811.75
2022-12-08T23:31:17.872Z,96810.89
2022-12-08T23:33:49.900Z,96808.61
2022-12-08T23:36:22.046Z,96808.61
2022-12-08T23:38:53.782Z,96804.77
2022-12-08T23:41:24.986Z,96809.48
2022-12-08T23:43:55.950Z,96807.02
2022-12-08T23:46:27.383Z,96807.27
2022-12-08T23:48:58.587Z,96806.86
2022-12-08T23:51:29.682Z,96810.88
2022-12-08T23:54:00.779Z,96815.69
2022-12-08T23:56:31.649Z,96813.16
2022-12-08T23:59:04.272Z,96811.35
